Terminal Aerodrome Forecast
Issued by NWS St Louis, MO

Home | Current Version | Previous Version | Text Only | Print | Product List | Glossary On
Versions: 1 2 3 4 5 6 7 8 9 10 11 12 13 14 15 16 17 18 19 20 21 22 23 24 25 26 27 28 29
093
FTUS43 KLSX 191700
TAFSTL
TAF
KSTL 191735Z 1918/2024 36010KT P6SM SCT035 BKN250
     FM200100 04005KT P6SM BKN250
     FM201100 08006KT P6SM BKN100
     FM201600 07007KT P6SM -RA OVC040
     FM201800 07008KT 5SM -RA BR OVC012=

USA.gov is the U.S. government's official web portal to all federal, state and local government web resources and services.